sensor_id;sensor_type;location;lat;lon;timestamp;P1;durP1;ratioP1;P2;durP2;ratioP2
10144;SDS011;5113;41.822;23.564;2022-10-15T00:01:49;8.77;;;6.10;;
10144;SDS011;5113;41.822;23.564;2022-10-15T00:04:55;10.60;;;6.37;;
10144;SDS011;5113;41.822;23.564;2022-10-15T00:08:04;17.07;;;7.40;;
10144;SDS011;5113;41.822;23.564;2022-10-15T00:11:12;8.33;;;6.03;;
10144;SDS011;5113;41.822;23.564;2022-10-15T00:14:20;10.87;;;9.40;;
10144;SDS011;5113;41.822;23.564;2022-10-15T00:17:26;9.27;;;7.10;;
10144;SDS011;5113;41.822;23.564;2022-10-15T00:20:32;10.17;;;6.80;;
10144;SDS011;5113;41.822;23.564;2022-10-15T00:23:38;10.17;;;7.23;;
10144;SDS011;5113;41.822;23.564;2022-10-15T00:26:45;12.03;;;6.20;;
10144;SDS011;5113;41.822;23.564;2022-10-15T00:29:52;11.83;;;7.33;;
10144;SDS011;5113;41.822;23.564;2022-10-15T00:32:58;8.47;;;6.80;;
10144;SDS011;5113;41.822;23.564;2022-10-15T00:36:05;11.87;;;7.37;;
10144;SDS011;5113;41.822;23.564;2022-10-15T00:39:13;9.20;;;6.73;;
10144;SDS011;5113;41.822;23.564;2022-10-15T00:42:22;8.73;;;6.47;;
10144;SDS011;5113;41.822;23.564;2022-10-15T00:45:30;13.33;;;6.90;;
10144;SDS011;5113;41.822;23.564;2022-10-15T00:48:36;13.83;;;6.93;;
10144;SDS011;5113;41.822;23.564;2022-10-15T00:51:43;10.93;;;7.13;;
10144;SDS011;5113;41.822;23.564;2022-10-15T00:54:54;7.87;;;5.03;;
10144;SDS011;5113;41.822;23.564;2022-10-15T00:58:05;10.17;;;6.67;;
10144;SDS011;5113;41.822;23.564;2022-10-15T01:01:22;12.17;;;8.00;;
10144;SDS011;5113;41.822;23.564;2022-10-15T01:04:29;7.93;;;6.60;;
10144;SDS011;5113;41.822;23.564;2022-10-15T01:07:36;6.23;;;5.70;;
10144;SDS011;5113;41.822;23.564;2022-10-15T01:10:43;9.60;;;5.93;;
10144;SDS011;5113;41.822;23.564;2022-10-15T01:13:57;8.57;;;6.70;;
10144;SDS011;5113;41.822;23.564;2022-10-15T01:17:15;13.93;;;8.60;;
10144;SDS011;5113;41.822;23.564;2022-10-15T01:20:33;12.30;;;9.33;;
10144;SDS011;5113;41.822;23.564;2022-10-15T01:27:28;14.00;;;8.23;;
10144;SDS011;5113;41.822;23.564;2022-10-15T01:30:41;18.13;;;9.97;;
10144;SDS011;5113;41.822;23.564;2022-10-15T01:33:53;11.70;;;8.73;;
10144;SDS011;5113;41.822;23.564;2022-10-15T01:37:07;13.33;;;9.30;;
10144;SDS011;5113;41.822;23.564;2022-10-15T01:40:19;13.30;;;8.57;;
10144;SDS011;5113;41.822;23.564;2022-10-15T01:43:29;11.40;;;7.77;;
10144;SDS011;5113;41.822;23.564;2022-10-15T01:46:42;8.63;;;7.10;;
10144;SDS011;5113;41.822;23.564;2022-10-15T01:49:52;11.87;;;8.57;;
10144;SDS011;5113;41.822;23.564;2022-10-15T01:52:59;12.80;;;8.30;;
10144;SDS011;5113;41.822;23.564;2022-10-15T01:56:09;9.97;;;7.43;;
10144;SDS011;5113;41.822;23.564;2022-10-15T01:59:20;14.80;;;8.20;;
10144;SDS011;5113;41.822;23.564;2022-10-15T02:02:31;11.97;;;7.77;;
10144;SDS011;5113;41.822;23.564;2022-10-15T02:05:37;13.17;;;8.80;;
10144;SDS011;5113;41.822;23.564;2022-10-15T02:08:50;14.73;;;9.43;;
10144;SDS011;5113;41.822;23.564;2022-10-15T02:12:20;12.23;;;10.13;;
10144;SDS011;5113;41.822;23.564;2022-10-15T02:15:39;11.20;;;7.30;;
10144;SDS011;5113;41.822;23.564;2022-10-15T02:18:53;16.23;;;8.87;;
10144;SDS011;5113;41.822;23.564;2022-10-15T02:22:07;11.97;;;7.73;;
10144;SDS011;5113;41.822;23.564;2022-10-15T02:25:18;13.67;;;8.70;;
10144;SDS011;5113;41.822;23.564;2022-10-15T02:28:27;15.33;;;7.30;;
10144;SDS011;5113;41.822;23.564;2022-10-15T02:31:35;12.03;;;8.57;;
10144;SDS011;5113;41.822;23.564;2022-10-15T02:34:46;11.70;;;7.27;;
10144;SDS011;5113;41.822;23.564;2022-10-15T02:37:54;11.53;;;8.30;;
10144;SDS011;5113;41.822;23.564;2022-10-15T02:41:06;11.30;;;8.60;;
10144;SDS011;5113;41.822;23.564;2022-10-15T02:44:14;10.77;;;7.83;;
10144;SDS011;5113;41.822;23.564;2022-10-15T02:47:20;10.00;;;7.50;;
10144;SDS011;5113;41.822;23.564;2022-10-15T02:50:28;8.23;;;7.33;;
10144;SDS011;5113;41.822;23.564;2022-10-15T02:53:34;10.87;;;7.73;;
10144;SDS011;5113;41.822;23.564;2022-10-15T02:56:40;10.07;;;8.10;;
10144;SDS011;5113;41.822;23.564;2022-10-15T02:59:46;11.97;;;8.20;;
10144;SDS011;5113;41.822;23.564;2022-10-15T03:02:53;16.47;;;11.03;;
10144;SDS011;5113;41.822;23.564;2022-10-15T03:06:01;24.90;;;16.70;;
10144;SDS011;5113;41.822;23.564;2022-10-15T03:09:07;68.30;;;55.40;;
10144;SDS011;5113;41.822;23.564;2022-10-15T03:12:14;30.53;;;20.03;;
10144;SDS011;5113;41.822;23.564;2022-10-15T03:15:20;19.67;;;15.10;;
10144;SDS011;5113;41.822;23.564;2022-10-15T03:18:26;20.70;;;14.20;;
10144;SDS011;5113;41.822;23.564;2022-10-15T03:21:33;13.17;;;10.20;;
10144;SDS011;5113;41.822;23.564;2022-10-15T03:24:39;12.43;;;9.13;;
10144;SDS011;5113;41.822;23.564;2022-10-15T03:27:46;131.90;;;61.77;;
10144;SDS011;5113;41.822;23.564;2022-10-15T03:30:52;89.83;;;50.80;;
10144;SDS011;5113;41.822;23.564;2022-10-15T03:33:58;52.70;;;29.00;;
10144;SDS011;5113;41.822;23.564;2022-10-15T03:37:06;22.30;;;12.27;;
10144;SDS011;5113;41.822;23.564;2022-10-15T03:40:12;15.93;;;8.83;;
10144;SDS011;5113;41.822;23.564;2022-10-15T03:43:19;29.97;;;16.17;;
10144;SDS011;5113;41.822;23.564;2022-10-15T03:46:28;96.43;;;39.47;;
10144;SDS011;5113;41.822;23.564;2022-10-15T03:49:34;44.80;;;19.20;;
10144;SDS011;5113;41.822;23.564;2022-10-15T03:52:42;40.23;;;18.03;;
10144;SDS011;5113;41.822;23.564;2022-10-15T03:55:49;9.30;;;7.20;;
10144;SDS011;5113;41.822;23.564;2022-10-15T03:58:55;18.27;;;9.73;;
10144;SDS011;5113;41.822;23.564;2022-10-15T04:02:01;21.30;;;11.10;;
10144;SDS011;5113;41.822;23.564;2022-10-15T04:05:08;22.13;;;10.63;;
10144;SDS011;5113;41.822;23.564;2022-10-15T04:08:16;23.07;;;12.83;;
10144;SDS011;5113;41.822;23.564;2022-10-15T04:11:22;25.10;;;12.40;;
10144;SDS011;5113;41.822;23.564;2022-10-15T04:14:28;19.03;;;11.03;;
10144;SDS011;5113;41.822;23.564;2022-10-15T04:17:34;13.93;;;10.70;;
10144;SDS011;5113;41.822;23.564;2022-10-15T04:20:40;17.87;;;10.47;;
10144;SDS011;5113;41.822;23.564;2022-10-15T04:23:48;20.90;;;11.47;;
10144;SDS011;5113;41.822;23.564;2022-10-15T04:26:54;15.20;;;11.30;;
10144;SDS011;5113;41.822;23.564;2022-10-15T04:30:00;14.93;;;9.87;;
10144;SDS011;5113;41.822;23.564;2022-10-15T04:33:07;15.13;;;8.77;;
10144;SDS011;5113;41.822;23.564;2022-10-15T04:36:13;17.37;;;10.70;;
10144;SDS011;5113;41.822;23.564;2022-10-15T04:39:22;13.30;;;9.27;;
10144;SDS011;5113;41.822;23.564;2022-10-15T04:42:28;11.03;;;8.07;;
10144;SDS011;5113;41.822;23.564;2022-10-15T04:45:35;14.13;;;7.83;;
10144;SDS011;5113;41.822;23.564;2022-10-15T04:48:41;14.40;;;6.93;;
10144;SDS011;5113;41.822;23.564;2022-10-15T04:51:48;11.23;;;7.67;;
10144;SDS011;5113;41.822;23.564;2022-10-15T04:54:55;14.07;;;10.37;;
10144;SDS011;5113;41.822;23.564;2022-10-15T04:58:03;24.10;;;13.13;;
10144;SDS011;5113;41.822;23.564;2022-10-15T05:01:10;20.40;;;11.47;;
10144;SDS011;5113;41.822;23.564;2022-10-15T05:04:17;16.80;;;10.60;;
10144;SDS011;5113;41.822;23.564;2022-10-15T05:07:24;16.20;;;11.33;;
10144;SDS011;5113;41.822;23.564;2022-10-15T05:10:32;22.37;;;11.90;;
10144;SDS011;5113;41.822;23.564;2022-10-15T05:13:38;11.53;;;8.90;;
10144;SDS011;5113;41.822;23.564;2022-10-15T05:16:45;18.43;;;10.50;;
10144;SDS011;5113;41.822;23.564;2022-10-15T05:19:51;13.37;;;8.57;;
10144;SDS011;5113;41.822;23.564;2022-10-15T05:22:57;17.67;;;10.43;;
10144;SDS011;5113;41.822;23.564;2022-10-15T05:26:06;11.47;;;7.93;;
10144;SDS011;5113;41.822;23.564;2022-10-15T05:29:15;10.20;;;7.93;;
10144;SDS011;5113;41.822;23.564;2022-10-15T05:32:38;16.27;;;8.43;;
10144;SDS011;5113;41.822;23.564;2022-10-15T05:35:45;11.17;;;8.90;;
10144;SDS011;5113;41.822;23.564;2022-10-15T05:38:53;11.40;;;8.30;;
10144;SDS011;5113;41.822;23.564;2022-10-15T05:42:03;9.47;;;7.53;;
10144;SDS011;5113;41.822;23.564;2022-10-15T05:45:10;9.50;;;7.73;;
10144;SDS011;5113;41.822;23.564;2022-10-15T05:48:16;17.67;;;11.53;;
10144;SDS011;5113;41.822;23.564;2022-10-15T05:51:23;14.20;;;9.83;;
10144;SDS011;5113;41.822;23.564;2022-10-15T05:54:30;15.13;;;11.70;;
10144;SDS011;5113;41.822;23.564;2022-10-15T05:57:38;25.37;;;15.60;;
10144;SDS011;5113;41.822;23.564;2022-10-15T06:00:44;28.00;;;18.67;;
10144;SDS011;5113;41.822;23.564;2022-10-15T06:03:50;35.47;;;20.43;;
10144;SDS011;5113;41.822;23.564;2022-10-15T06:06:57;37.00;;;22.00;;
10144;SDS011;5113;41.822;23.564;2022-10-15T06:10:03;69.43;;;42.43;;
10144;SDS011;5113;41.822;23.564;2022-10-15T06:13:11;48.50;;;28.00;;
10144;SDS011;5113;41.822;23.564;2022-10-15T06:16:18;33.27;;;20.40;;
10144;SDS011;5113;41.822;23.564;2022-10-15T06:19:27;54.03;;;27.37;;
10144;SDS011;5113;41.822;23.564;2022-10-15T06:22:34;76.97;;;36.57;;
10144;SDS011;5113;41.822;23.564;2022-10-15T06:25:45;29.63;;;17.13;;
10144;SDS011;5113;41.822;23.564;2022-10-15T06:28:54;25.50;;;15.13;;
10144;SDS011;5113;41.822;23.564;2022-10-15T06:32:00;27.20;;;16.70;;
10144;SDS011;5113;41.822;23.564;2022-10-15T06:35:07;26.67;;;15.90;;
10144;SDS011;5113;41.822;23.564;2022-10-15T06:38:13;31.33;;;16.37;;
10144;SDS011;5113;41.822;23.564;2022-10-15T06:41:19;19.03;;;12.20;;
10144;SDS011;5113;41.822;23.564;2022-10-15T06:44:27;22.00;;;13.53;;
10144;SDS011;5113;41.822;23.564;2022-10-15T06:47:33;14.77;;;10.43;;
10144;SDS011;5113;41.822;23.564;2022-10-15T06:50:39;21.87;;;14.53;;
10144;SDS011;5113;41.822;23.564;2022-10-15T06:53:46;22.60;;;13.10;;
10144;SDS011;5113;41.822;23.564;2022-10-15T06:56:52;30.00;;;18.77;;
10144;SDS011;5113;41.822;23.564;2022-10-15T06:59:59;38.77;;;22.83;;
10144;SDS011;5113;41.822;23.564;2022-10-15T07:03:06;39.17;;;22.03;;
10144;SDS011;5113;41.822;23.564;2022-10-15T07:06:12;36.43;;;23.07;;
10144;SDS011;5113;41.822;23.564;2022-10-15T07:09:19;41.93;;;24.60;;
10144;SDS011;5113;41.822;23.564;2022-10-15T07:12:25;55.87;;;23.63;;
10144;SDS011;5113;41.822;23.564;2022-10-15T07:15:33;61.13;;;24.43;;
10144;SDS011;5113;41.822;23.564;2022-10-15T07:18:39;44.73;;;22.43;;
10144;SDS011;5113;41.822;23.564;2022-10-15T07:21:46;37.77;;;26.30;;
10144;SDS011;5113;41.822;23.564;2022-10-15T07:24:52;20.00;;;14.00;;
10144;SDS011;5113;41.822;23.564;2022-10-15T07:27:58;21.47;;;10.53;;
10144;SDS011;5113;41.822;23.564;2022-10-15T07:31:06;24.70;;;14.40;;
10144;SDS011;5113;41.822;23.564;2022-10-15T07:34:13;34.23;;;12.83;;
10144;SDS011;5113;41.822;23.564;2022-10-15T07:37:19;31.47;;;15.57;;
10144;SDS011;5113;41.822;23.564;2022-10-15T07:40:26;25.13;;;11.73;;
10144;SDS011;5113;41.822;23.564;2022-10-15T07:43:32;23.10;;;16.93;;
10144;SDS011;5113;41.822;23.564;2022-10-15T07:46:40;18.93;;;12.07;;
10144;SDS011;5113;41.822;23.564;2022-10-15T07:49:46;18.97;;;11.37;;
10144;SDS011;5113;41.822;23.564;2022-10-15T07:52:52;23.20;;;15.37;;
10144;SDS011;5113;41.822;23.564;2022-10-15T07:55:58;18.67;;;13.63;;
10144;SDS011;5113;41.822;23.564;2022-10-15T07:59:06;29.37;;;18.47;;
10144;SDS011;5113;41.822;23.564;2022-10-15T08:02:15;33.43;;;21.43;;
10144;SDS011;5113;41.822;23.564;2022-10-15T08:05:22;21.67;;;16.17;;
10144;SDS011;5113;41.822;23.564;2022-10-15T08:08:28;10.20;;;6.93;;
10144;SDS011;5113;41.822;23.564;2022-10-15T08:11:34;10.53;;;8.53;;
10144;SDS011;5113;41.822;23.564;2022-10-15T08:14:41;31.30;;;16.53;;
10144;SDS011;5113;41.822;23.564;2022-10-15T08:17:48;19.17;;;11.97;;
10144;SDS011;5113;41.822;23.564;2022-10-15T08:20:57;17.97;;;15.50;;
10144;SDS011;5113;41.822;23.564;2022-10-15T08:24:04;15.53;;;9.27;;
10144;SDS011;5113;41.822;23.564;2022-10-15T08:27:10;9.50;;;7.70;;
10144;SDS011;5113;41.822;23.564;2022-10-15T08:30:17;25.93;;;13.37;;
10144;SDS011;5113;41.822;23.564;2022-10-15T08:33:24;11.07;;;6.50;;
10144;SDS011;5113;41.822;23.564;2022-10-15T08:36:30;3.30;;;3.00;;
10144;SDS011;5113;41.822;23.564;2022-10-15T08:39:37;10.03;;;7.93;;
10144;SDS011;5113;41.822;23.564;2022-10-15T08:42:44;48.17;;;34.37;;
10144;SDS011;5113;41.822;23.564;2022-10-15T08:45:52;6.97;;;5.20;;
10144;SDS011;5113;41.822;23.564;2022-10-15T08:49:03;7.13;;;5.27;;
10144;SDS011;5113;41.822;23.564;2022-10-15T08:52:15;27.80;;;12.77;;
10144;SDS011;5113;41.822;23.564;2022-10-15T08:55:26;18.30;;;12.53;;
10144;SDS011;5113;41.822;23.564;2022-10-15T08:58:42;3.23;;;2.93;;
10144;SDS011;5113;41.822;23.564;2022-10-15T09:01:54;9.60;;;6.23;;
10144;SDS011;5113;41.822;23.564;2022-10-15T09:05:10;11.13;;;8.57;;
10144;SDS011;5113;41.822;23.564;2022-10-15T09:08:33;12.40;;;7.67;;
10144;SDS011;5113;41.822;23.564;2022-10-15T09:11:49;7.33;;;4.70;;
10144;SDS011;5113;41.822;23.564;2022-10-15T09:15:04;11.13;;;7.83;;
10144;SDS011;5113;41.822;23.564;2022-10-15T09:18:19;6.00;;;5.33;;
10144;SDS011;5113;41.822;23.564;2022-10-15T09:21:30;29.83;;;14.53;;
10144;SDS011;5113;41.822;23.564;2022-10-15T09:24:40;5.93;;;4.40;;
10144;SDS011;5113;41.822;23.564;2022-10-15T09:27:47;9.43;;;6.80;;
10144;SDS011;5113;41.822;23.564;2022-10-15T09:30:55;17.10;;;9.20;;
10144;SDS011;5113;41.822;23.564;2022-10-15T09:34:03;6.73;;;3.93;;
10144;SDS011;5113;41.822;23.564;2022-10-15T09:37:18;11.80;;;4.37;;
10144;SDS011;5113;41.822;23.564;2022-10-15T09:40:34;8.37;;;4.73;;
10144;SDS011;5113;41.822;23.564;2022-10-15T09:43:48;6.17;;;3.83;;
10144;SDS011;5113;41.822;23.564;2022-10-15T09:46:56;17.20;;;5.63;;
10144;SDS011;5113;41.822;23.564;2022-10-15T09:50:03;5.87;;;4.00;;
10144;SDS011;5113;41.822;23.564;2022-10-15T09:53:15;9.00;;;6.07;;
10144;SDS011;5113;41.822;23.564;2022-10-15T09:56:31;4.20;;;3.13;;
10144;SDS011;5113;41.822;23.564;2022-10-15T09:59:50;2.87;;;2.67;;
10144;SDS011;5113;41.822;23.564;2022-10-15T10:03:02;2.73;;;2.53;;
10144;SDS011;5113;41.822;23.564;2022-10-15T10:06:12;5.53;;;3.50;;
10144;SDS011;5113;41.822;23.564;2022-10-15T10:09:22;3.03;;;2.73;;
10144;SDS011;5113;41.822;23.564;2022-10-15T10:12:31;5.37;;;3.43;;
10144;SDS011;5113;41.822;23.564;2022-10-15T10:15:40;4.97;;;2.70;;
10144;SDS011;5113;41.822;23.564;2022-10-15T10:19:00;6.10;;;3.17;;
10144;SDS011;5113;41.822;23.564;2022-10-15T10:22:13;4.03;;;3.33;;
10144;SDS011;5113;41.822;23.564;2022-10-15T10:25:30;2.77;;;2.57;;
10144;SDS011;5113;41.822;23.564;2022-10-15T10:28:40;4.93;;;2.77;;
10144;SDS011;5113;41.822;23.564;2022-10-15T10:31:55;2.37;;;2.17;;
10144;SDS011;5113;41.822;23.564;2022-10-15T10:35:02;3.53;;;3.23;;
10144;SDS011;5113;41.822;23.564;2022-10-15T10:38:17;8.00;;;5.13;;
10144;SDS011;5113;41.822;23.564;2022-10-15T10:41:28;2.67;;;2.40;;
10144;SDS011;5113;41.822;23.564;2022-10-15T10:44:52;2.07;;;1.97;;
10144;SDS011;5113;41.822;23.564;2022-10-15T10:47:58;3.43;;;2.37;;
10144;SDS011;5113;41.822;23.564;2022-10-15T10:51:23;3.23;;;2.93;;
10144;SDS011;5113;41.822;23.564;2022-10-15T10:54:31;3.17;;;2.90;;
10144;SDS011;5113;41.822;23.564;2022-10-15T10:57:41;3.40;;;3.10;;
10144;SDS011;5113;41.822;23.564;2022-10-15T11:00:52;2.70;;;2.50;;
10144;SDS011;5113;41.822;23.564;2022-10-15T11:03:59;2.07;;;1.87;;
10144;SDS011;5113;41.822;23.564;2022-10-15T11:07:05;2.27;;;2.07;;
10144;SDS011;5113;41.822;23.564;2022-10-15T11:13:49;2.87;;;2.47;;
10144;SDS011;5113;41.822;23.564;2022-10-15T11:17:06;3.07;;;2.70;;
10144;SDS011;5113;41.822;23.564;2022-10-15T11:20:19;2.43;;;2.23;;
10144;SDS011;5113;41.822;23.564;2022-10-15T11:23:54;2.97;;;2.77;;
10144;SDS011;5113;41.822;23.564;2022-10-15T11:27:19;2.47;;;2.10;;
10144;SDS011;5113;41.822;23.564;2022-10-15T11:30:44;3.00;;;2.30;;
10144;SDS011;5113;41.822;23.564;2022-10-15T11:33:59;2.70;;;2.50;;
10144;SDS011;5113;41.822;23.564;2022-10-15T11:37:23;3.97;;;2.50;;
10144;SDS011;5113;41.822;23.564;2022-10-15T11:40:44;2.80;;;2.43;;
10144;SDS011;5113;41.822;23.564;2022-10-15T11:44:02;3.77;;;3.40;;
10144;SDS011;5113;41.822;23.564;2022-10-15T11:47:23;3.47;;;3.00;;
10144;SDS011;5113;41.822;23.564;2022-10-15T11:50:38;8.93;;;5.03;;
10144;SDS011;5113;41.822;23.564;2022-10-15T11:54:00;15.47;;;8.70;;
10144;SDS011;5113;41.822;23.564;2022-10-15T11:57:17;9.40;;;4.80;;
10144;SDS011;5113;41.822;23.564;2022-10-15T12:00:28;2.30;;;2.00;;
10144;SDS011;5113;41.822;23.564;2022-10-15T12:03:41;15.17;;;6.60;;
10144;SDS011;5113;41.822;23.564;2022-10-15T12:06:54;8.73;;;4.97;;
10144;SDS011;5113;41.822;23.564;2022-10-15T12:10:04;5.73;;;3.43;;
10144;SDS011;5113;41.822;23.564;2022-10-15T12:13:23;10.03;;;6.50;;
10144;SDS011;5113;41.822;23.564;2022-10-15T12:16:35;25.70;;;12.40;;
10144;SDS011;5113;41.822;23.564;2022-10-15T12:19:49;5.13;;;4.20;;
10144;SDS011;5113;41.822;23.564;2022-10-15T12:22:59;14.60;;;8.00;;
10144;SDS011;5113;41.822;23.564;2022-10-15T12:29:32;5.63;;;3.23;;
10144;SDS011;5113;41.822;23.564;2022-10-15T12:36:06;19.43;;;12.50;;
10144;SDS011;5113;41.822;23.564;2022-10-15T12:39:25;7.80;;;5.83;;
10144;SDS011;5113;41.822;23.564;2022-10-15T12:42:51;6.73;;;5.27;;
10144;SDS011;5113;41.822;23.564;2022-10-15T12:46:00;3.73;;;3.03;;
10144;SDS011;5113;41.822;23.564;2022-10-15T12:52:57;2.70;;;2.50;;
10144;SDS011;5113;41.822;23.564;2022-10-15T12:56:11;4.10;;;3.70;;
10144;SDS011;5113;41.822;23.564;2022-10-15T12:59:29;2.53;;;2.33;;
10144;SDS011;5113;41.822;23.564;2022-10-15T13:02:57;2.67;;;2.43;;
10144;SDS011;5113;41.822;23.564;2022-10-15T13:06:21;5.97;;;3.10;;
10144;SDS011;5113;41.822;23.564;2022-10-15T13:09:32;2.70;;;2.50;;
10144;SDS011;5113;41.822;23.564;2022-10-15T13:12:39;2.20;;;2.10;;
10144;SDS011;5113;41.822;23.564;2022-10-15T13:15:52;2.20;;;2.10;;
10144;SDS011;5113;41.822;23.564;2022-10-15T13:19:03;2.40;;;2.00;;
10144;SDS011;5113;41.822;23.564;2022-10-15T13:22:18;2.33;;;2.13;;
10144;SDS011;5113;41.822;23.564;2022-10-15T13:25:29;2.20;;;2.00;;
10144;SDS011;5113;41.822;23.564;2022-10-15T13:28:35;2.10;;;2.00;;
10144;SDS011;5113;41.822;23.564;2022-10-15T13:31:43;2.10;;;2.00;;
10144;SDS011;5113;41.822;23.564;2022-10-15T13:34:51;2.17;;;1.97;;
10144;SDS011;5113;41.822;23.564;2022-10-15T13:37:57;1.83;;;1.73;;
10144;SDS011;5113;41.822;23.564;2022-10-15T13:41:06;2.00;;;1.90;;
10144;SDS011;5113;41.822;23.564;2022-10-15T13:44:18;2.30;;;2.10;;
10144;SDS011;5113;41.822;23.564;2022-10-15T13:47:28;2.70;;;2.50;;
10144;SDS011;5113;41.822;23.564;2022-10-15T13:50:36;1.80;;;1.80;;
10144;SDS011;5113;41.822;23.564;2022-10-15T13:53:44;3.13;;;2.83;;
10144;SDS011;5113;41.822;23.564;2022-10-15T13:56:53;3.17;;;2.87;;
10144;SDS011;5113;41.822;23.564;2022-10-15T14:00:02;12.60;;;6.00;;
10144;SDS011;5113;41.822;23.564;2022-10-15T14:03:15;47.43;;;21.77;;
10144;SDS011;5113;41.822;23.564;2022-10-15T14:06:23;12.73;;;7.43;;
10144;SDS011;5113;41.822;23.564;2022-10-15T14:09:31;5.33;;;4.00;;
10144;SDS011;5113;41.822;23.564;2022-10-15T14:12:41;4.50;;;3.10;;
10144;SDS011;5113;41.822;23.564;2022-10-15T14:15:50;8.40;;;6.17;;
10144;SDS011;5113;41.822;23.564;2022-10-15T14:19:15;5.80;;;4.97;;
10144;SDS011;5113;41.822;23.564;2022-10-15T14:22:25;3.63;;;3.33;;
10144;SDS011;5113;41.822;23.564;2022-10-15T14:25:32;3.63;;;3.33;;
10144;SDS011;5113;41.822;23.564;2022-10-15T14:28:40;3.80;;;3.40;;
10144;SDS011;5113;41.822;23.564;2022-10-15T14:31:55;5.03;;;4.17;;
10144;SDS011;5113;41.822;23.564;2022-10-15T14:35:02;3.97;;;3.60;;
10144;SDS011;5113;41.822;23.564;2022-10-15T14:38:14;4.60;;;4.20;;
10144;SDS011;5113;41.822;23.564;2022-10-15T14:41:26;23.97;;;18.67;;
10144;SDS011;5113;41.822;23.564;2022-10-15T14:44:42;11.00;;;9.40;;
10144;SDS011;5113;41.822;23.564;2022-10-15T14:47:51;9.13;;;6.63;;
10144;SDS011;5113;41.822;23.564;2022-10-15T14:50:59;7.00;;;6.30;;
10144;SDS011;5113;41.822;23.564;2022-10-15T14:54:11;4.97;;;4.47;;
10144;SDS011;5113;41.822;23.564;2022-10-15T14:57:25;10.63;;;7.50;;
10144;SDS011;5113;41.822;23.564;2022-10-15T15:00:37;6.77;;;3.97;;
10144;SDS011;5113;41.822;23.564;2022-10-15T15:03:46;5.30;;;4.27;;
10144;SDS011;5113;41.822;23.564;2022-10-15T15:06:54;5.40;;;3.57;;
10144;SDS011;5113;41.822;23.564;2022-10-15T15:10:00;7.90;;;4.77;;
10144;SDS011;5113;41.822;23.564;2022-10-15T15:13:09;3.63;;;3.30;;
10144;SDS011;5113;41.822;23.564;2022-10-15T15:16:17;4.57;;;4.20;;
10144;SDS011;5113;41.822;23.564;2022-10-15T15:19:24;7.80;;;5.50;;
10144;SDS011;5113;41.822;23.564;2022-10-15T15:22:31;6.37;;;4.60;;
10144;SDS011;5113;41.822;23.564;2022-10-15T15:25:38;7.57;;;5.13;;
10144;SDS011;5113;41.822;23.564;2022-10-15T15:28:45;11.53;;;7.80;;
10144;SDS011;5113;41.822;23.564;2022-10-15T15:31:52;11.47;;;9.00;;
10144;SDS011;5113;41.822;23.564;2022-10-15T15:34:59;15.00;;;7.67;;
10144;SDS011;5113;41.822;23.564;2022-10-15T15:38:05;14.90;;;8.13;;
10144;SDS011;5113;41.822;23.564;2022-10-15T15:41:13;13.27;;;9.07;;
10144;SDS011;5113;41.822;23.564;2022-10-15T15:44:20;20.43;;;12.13;;
10144;SDS011;5113;41.822;23.564;2022-10-15T15:47:28;42.87;;;26.43;;
10144;SDS011;5113;41.822;23.564;2022-10-15T15:50:34;52.70;;;27.73;;
10144;SDS011;5113;41.822;23.564;2022-10-15T15:53:41;48.90;;;29.93;;
10144;SDS011;5113;41.822;23.564;2022-10-15T15:56:48;56.03;;;29.53;;
10144;SDS011;5113;41.822;23.564;2022-10-15T15:59:54;72.87;;;38.90;;
10144;SDS011;5113;41.822;23.564;2022-10-15T16:03:02;76.13;;;31.73;;
10144;SDS011;5113;41.822;23.564;2022-10-15T16:06:08;108.57;;;47.03;;
10144;SDS011;5113;41.822;23.564;2022-10-15T16:09:16;77.13;;;39.83;;
10144;SDS011;5113;41.822;23.564;2022-10-15T16:12:23;43.13;;;27.33;;
10144;SDS011;5113;41.822;23.564;2022-10-15T16:15:34;37.63;;;21.93;;
10144;SDS011;5113;41.822;23.564;2022-10-15T16:18:42;47.13;;;25.93;;
10144;SDS011;5113;41.822;23.564;2022-10-15T16:21:48;17.60;;;11.53;;
10144;SDS011;5113;41.822;23.564;2022-10-15T16:24:54;20.40;;;11.07;;
10144;SDS011;5113;41.822;23.564;2022-10-15T16:28:01;11.77;;;6.97;;
10144;SDS011;5113;41.822;23.564;2022-10-15T16:31:13;12.80;;;7.43;;
10144;SDS011;5113;41.822;23.564;2022-10-15T16:34:22;7.13;;;4.67;;
10144;SDS011;5113;41.822;23.564;2022-10-15T16:37:29;9.67;;;6.23;;
10144;SDS011;5113;41.822;23.564;2022-10-15T16:40:36;13.33;;;8.40;;
10144;SDS011;5113;41.822;23.564;2022-10-15T16:43:43;23.33;;;10.63;;
10144;SDS011;5113;41.822;23.564;2022-10-15T16:46:50;11.27;;;6.70;;
10144;SDS011;5113;41.822;23.564;2022-10-15T16:49:58;8.47;;;6.50;;
10144;SDS011;5113;41.822;23.564;2022-10-15T16:53:05;11.63;;;8.73;;
10144;SDS011;5113;41.822;23.564;2022-10-15T16:56:12;15.53;;;8.43;;
10144;SDS011;5113;41.822;23.564;2022-10-15T16:59:20;13.70;;;8.20;;
10144;SDS011;5113;41.822;23.564;2022-10-15T17:02:27;23.60;;;13.40;;
10144;SDS011;5113;41.822;23.564;2022-10-15T17:05:35;37.63;;;20.93;;
10144;SDS011;5113;41.822;23.564;2022-10-15T17:08:41;51.03;;;23.63;;
10144;SDS011;5113;41.822;23.564;2022-10-15T17:11:50;43.37;;;17.37;;
10144;SDS011;5113;41.822;23.564;2022-10-15T17:14:57;60.17;;;26.30;;
10144;SDS011;5113;41.822;23.564;2022-10-15T17:18:03;46.23;;;24.90;;
10144;SDS011;5113;41.822;23.564;2022-10-15T17:21:11;53.97;;;24.93;;
10144;SDS011;5113;41.822;23.564;2022-10-15T17:24:19;46.57;;;24.63;;
10144;SDS011;5113;41.822;23.564;2022-10-15T17:27:25;97.73;;;46.57;;
10144;SDS011;5113;41.822;23.564;2022-10-15T17:30:33;117.50;;;54.97;;
10144;SDS011;5113;41.822;23.564;2022-10-15T17:33:40;105.77;;;55.07;;
10144;SDS011;5113;41.822;23.564;2022-10-15T17:36:49;113.67;;;48.23;;
10144;SDS011;5113;41.822;23.564;2022-10-15T17:39:56;91.03;;;40.77;;
10144;SDS011;5113;41.822;23.564;2022-10-15T17:43:03;87.40;;;39.47;;
10144;SDS011;5113;41.822;23.564;2022-10-15T17:46:10;72.37;;;38.47;;
10144;SDS011;5113;41.822;23.564;2022-10-15T17:49:18;69.97;;;35.40;;
10144;SDS011;5113;41.822;23.564;2022-10-15T17:52:26;76.80;;;37.53;;
10144;SDS011;5113;41.822;23.564;2022-10-15T17:55:32;63.47;;;33.13;;
10144;SDS011;5113;41.822;23.564;2022-10-15T17:58:38;52.40;;;25.97;;
10144;SDS011;5113;41.822;23.564;2022-10-15T18:01:45;47.93;;;23.53;;
10144;SDS011;5113;41.822;23.564;2022-10-15T18:05:06;37.33;;;21.17;;
10144;SDS011;5113;41.822;23.564;2022-10-15T18:08:15;35.13;;;21.30;;
10144;SDS011;5113;41.822;23.564;2022-10-15T18:11:22;33.83;;;17.60;;
10144;SDS011;5113;41.822;23.564;2022-10-15T18:14:29;27.10;;;15.73;;
10144;SDS011;5113;41.822;23.564;2022-10-15T18:17:35;32.47;;;19.30;;
10144;SDS011;5113;41.822;23.564;2022-10-15T18:20:42;48.43;;;24.30;;
10144;SDS011;5113;41.822;23.564;2022-10-15T18:23:51;44.60;;;24.80;;
10144;SDS011;5113;41.822;23.564;2022-10-15T18:27:00;84.70;;;38.00;;
10144;SDS011;5113;41.822;23.564;2022-10-15T18:30:06;75.97;;;39.87;;
10144;SDS011;5113;41.822;23.564;2022-10-15T18:33:15;58.63;;;28.90;;
10144;SDS011;5113;41.822;23.564;2022-10-15T18:36:22;44.37;;;22.87;;
10144;SDS011;5113;41.822;23.564;2022-10-15T18:39:30;33.27;;;18.00;;
10144;SDS011;5113;41.822;23.564;2022-10-15T18:42:37;24.10;;;12.20;;
10144;SDS011;5113;41.822;23.564;2022-10-15T18:45:43;12.70;;;8.13;;
10144;SDS011;5113;41.822;23.564;2022-10-15T18:48:50;14.47;;;9.20;;
10144;SDS011;5113;41.822;23.564;2022-10-15T18:51:56;22.73;;;12.13;;
10144;SDS011;5113;41.822;23.564;2022-10-15T18:55:20;27.50;;;16.57;;
10144;SDS011;5113;41.822;23.564;2022-10-15T18:58:27;31.10;;;15.53;;
10144;SDS011;5113;41.822;23.564;2022-10-15T19:01:34;61.60;;;28.57;;